ADDS METAR Data INFO
IDs: Format: Raw Decoded Include TAF

Data at: 0154 UTC 17 Oct 2017

KDRT 170053Z AUTO 27003KT 10SM CLR 19/07 A3025 RMK AO2 SLP236 T01890067